Have a Safe July 4th! 

Flight Track Log - Related Links

Times and Time Zones

All times are in EST time to prevent confusion due to time zone crossing. See the AVN10 flight status page for this flight to view local times or setup timezone preferences in your user account.

Time Position Orientation Groundspeed Altitude Reporting Facility
EST Latitude Longitude Course Direction KTS MPH feet Rate Location/Type
Sat 02:55:00 PM -18.2220 168.0531 206° Southwest  Level FlightAware Approximate
Sat 02:56:00 PM -18.3264 167.9996 206° Southwest  Level FlightAware Approximate
Sat 02:57:00 PM -18.4147 167.9200 204° Southwest  Level Estimated
Sat 02:58:00 PM -18.5210 167.8706 204° Southwest  Level FlightAware Approximate
Sat 02:59:00 PM -18.6273 167.8211 204° Southwest  Level FlightAware Approximate
Sat 03:00:00 PM -18.7336 167.7716 204° Southwest  Level FlightAware Approximate
Sat 03:01:00 PM -18.8399 167.7221 204° Southwest  Level FlightAware Approximate
Sat 03:02:00 PM -18.9462 167.6724 204° Southwest  Level FlightAware Approximate
Sat 03:03:00 PM -19.0524 167.6227 204° Southwest  Level FlightAware Approximate
Sat 03:04:00 PM -19.1587 167.5730 204° Southwest  Level FlightAware Approximate
Sat 03:05:00 PM -19.2649 167.5231 204° Southwest  Level FlightAware Approximate
Sat 03:06:00 PM -19.3711 167.4732 204° Southwest  Level FlightAware Approximate
Sat 03:07:00 PM -19.4773 167.4233 204° Southwest  Level FlightAware Approximate
Sat 03:08:00 PM -19.5835 167.3733 204° Southwest  Level FlightAware Approximate
Sat 03:09:00 PM -19.6897 167.3232 204° Southwest  Level FlightAware Approximate
Sat 03:10:00 PM -19.7959 167.2730 204° Southwest  Level FlightAware Approximate
Sat 03:11:00 PM -19.9020 167.2228 204° Southwest  Level FlightAware Approximate
Sat 03:12:00 PM -20.0082 167.1725 204° Southwest  Level FlightAware Approximate
Sat 03:13:00 PM -20.1143 167.1221 204° Southwest  Level FlightAware Approximate
Sat 03:14:00 PM -20.2204 167.0717 204° Southwest  Level FlightAware Approximate
Sat 03:15:00 PM -20.3265 167.0212 204° Southwest  Level FlightAware Approximate
Sat 03:16:00 PM -20.4326 166.9707 204° Southwest  Level FlightAware Approximate
Sat 03:17:00 PM -20.5386 166.9200 204° Southwest  Level FlightAware Approximate
Sat 03:18:00 PM -20.6447 166.8694 204° Southwest  Level FlightAware Approximate
Sat 03:19:00 PM -20.7507 166.8186 204° Southwest  Level FlightAware Approximate
Sat 03:19:31 PM -20.5530 166.9020 224° Southwest 439 505 36,000  Level FlightAware ADS-B
Sat 03:20:00 PM -20.8355 166.7337 224° Southwest  Level Estimated
Sat 03:20:25 PM -20.6530 166.8550 204° Southwest 439 505 36,000  Level FlightAware ADS-B
Sat 03:20:57 PM -20.7140 166.8260 204° Southwest 440 506 36,000  Level FlightAware ADS-B
Sat 03:21:30 PM -20.7740 166.7980 204° Southwest 439 505 36,000  Level FlightAware ADS-B
Sat 03:22:31 PM -20.8880 166.7440 204° Southwest 438 504 36,000  Level FlightAware ADS-B
Sat 03:23:27 PM -20.9930 166.6940 204° Southwest 439 505 36,000  Level FlightAware ADS-B
Sat 03:24:08 PM -21.0690 166.6580 204° Southwest 440 506 36,000  Level FlightAware ADS-B
Sat 03:24:40 PM -21.1280 166.6300 204° Southwest 440 506 36,000  Level FlightAware ADS-B
Sat 03:25:10 PM -21.1840 166.6040 203° Southwest 440 506 36,000  Level FlightAware ADS-B
Sat 03:26:13 PM -21.3000 166.5490 204° Southwest 438 504 36,000  Level FlightAware ADS-B
Sat 03:26:46 PM -21.3620 166.5190 204° Southwest 436 502 36,000  Level FlightAware ADS-B
Sat 03:27:46 PM -21.4750 166.4650 204° Southwest 436 502 36,000  Level FlightAware ADS-B
Sat 03:28:42 PM -21.5790 166.4160 204° Southwest 434 499 36,000  Level FlightAware ADS-B
Sat 03:29:14 PM -21.6330 166.3900 204° Southwest 432 497 36,000  Level FlightAware ADS-B
Sat 03:30:10 PM -21.7390 166.3390 204° Southwest 429 494 36,000  Level FlightAware ADS-B
Sat 03:30:41 PM -21.7950 166.3130 203° Southwest 427 491 36,000  Level FlightAware ADS-B
Sat 03:31:34 PM -21.8920 166.2660 204° Southwest 426 490 36,000  Level FlightAware ADS-B
Sat 03:32:34 PM -21.9980 166.2120 205° Southwest 420 483 36,000  Level FlightAware ADS-B
Sat 03:33:02 PM -22.0400 166.1760 218° Southwest 406 467 36,000  Level FlightAware ADS-B
Sat 03:33:40 PM -22.0910 166.1220 224° Southwest 405 466 36,000  Level FlightAware ADS-B
Sat 03:34:17 PM -22.1410 166.0700 224° Southwest 405 466 36,000  Level FlightAware ADS-B
Sat 03:35:05 PM -22.2060 166.0020 224° Southwest 405 466 36,000  Level FlightAware ADS-B
Sat 03:35:41 PM -22.2540 165.9510 225° Southwest 406 467 36,000  Level FlightAware ADS-B
Sat 03:36:39 PM -22.3330 165.8680 224° Southwest 407 468 36,000  Level FlightAware ADS-B
Sat 03:37:11 PM -22.3760 165.8240 223° Southwest 405 466 36,000  Level FlightAware ADS-B
Sat 03:38:18 PM -22.4650 165.7300 224° Southwest 403 464 36,000  Level FlightAware ADS-B
Sat 03:39:15 PM -22.5390 165.6510 225° Southwest 401 461 36,000  Level FlightAware ADS-B
Sat 03:40:15 PM -22.6170 165.5690 224° Southwest 388 447 36,000  Level FlightAware ADS-B
Sat 03:41:11 PM -22.6910 165.4900 225° Southwest 386 444 36,000  Level FlightAware ADS-B
Sat 03:41:46 PM -22.7360 165.4420 225° Southwest 388 447 36,000  Level FlightAware ADS-B
Sat 03:42:19 PM -22.7780 165.3980 224° Southwest 389 448 36,000  Level FlightAware ADS-B
Sat 03:42:55 PM -22.8240 165.3490 224° Southwest 388 447 36,000  Level FlightAware ADS-B
Sat 03:43:39 PM -22.8820 165.2880 224° Southwest 398 458 36,000  Level FlightAware ADS-B
Sat 03:44:36 PM -22.9580 165.2070 224° Southwest 407 468 36,000  Level FlightAware ADS-B
Sat 03:45:08 PM -23.0010 165.1610 225° Southwest 406 467 36,000  Level FlightAware ADS-B
Sat 03:46:02 PM -23.0720 165.0850 225° Southwest 407 468 36,000  Level FlightAware ADS-B
Sat 03:46:39 PM -23.1220 165.0310 225° Southwest 408 470 36,000  Level FlightAware ADS-B
Sat 03:47:07 PM -23.1600 164.9900 225° Southwest 408 470 36,000  Level FlightAware ADS-B
Sat 03:47:46 PM -23.2130 164.9340 224° Southwest 408 470 36,000  Level FlightAware ADS-B
Sat 03:48:37 PM -23.2720 164.8720 224° Southwest 408 470 36,000  Level FlightAware ADS-B
Sat 03:49:17 PM -23.3180 164.8240 224° Southwest 408 470 36,000  Level FlightAware ADS-B
Sat 03:49:54 PM -23.3610 164.7790 224° Southwest 408 470 36,000  Level FlightAware ADS-B
Sat 03:50:42 PM -23.4160 164.7200 225° Southwest 408 470 36,000  Level FlightAware ADS-B
Sat 03:51:18 PM -23.4570 164.6770 224° Southwest 408 470 36,000  Level FlightAware ADS-B
Sat 03:52:07 PM -23.5140 164.6170 224° Southwest 408 470 36,000  Level FlightAware ADS-B
Sat 03:53:20 PM -23.5980 164.5280 224° Southwest 408 470 36,000  Level FlightAware ADS-B
Sat 03:54:09 PM -23.6550 164.4690 223° Southwest 408 470 36,000  Level FlightAware ADS-B
Sat 03:55:09 PM -23.7240 164.3960 224° Southwest 408 470 36,000  Level FlightAware ADS-B
Sat 03:55:45 PM -23.7660 164.3520 224° Southwest 408 470 36,000  Level FlightAware ADS-B
Sat 03:56:33 PM -23.8210 164.2930 224° Southwest 408 470 36,000  Level FlightAware ADS-B
Sat 03:57:21 PM -23.8760 164.2350 224° Southwest 408 470 36,000  Level FlightAware ADS-B
Sat 03:57:45 PM -23.9040 164.2060 223° Southwest 408 470 36,000 28 Level FlightAware ADS-B
Sat 04:00:00 PM -24.0876 164.0023 225° Southwest  Level FlightAware Approximate
Sat 04:01:00 PM -24.1692 163.9116 225° Southwest  Level FlightAware Approximate
Sat 04:02:00 PM -24.2507 163.8208 225° Southwest  Level FlightAware Approximate
Sat 04:03:00 PM -24.3321 163.7299 225° Southwest  Level FlightAware Approximate
Sat 04:03:45 PM -24.6998 163.3103 224° Southwest 36,000  Level Aus ATC (Calculated)
Sat 04:04:00 PM -24.4134 163.6388 226° Southwest  Level FlightAware Approximate
Sat 04:04:00 PM -24.6998 163.3103 224° Southwest 36,000  Level Aus ATC (Calculated)
Sat 04:05:00 PM -24.7789 163.2229 225° Southwest  Level FlightAware Approximate
Sat 04:06:00 PM -24.8580 163.1353 225° Southwest  Level FlightAware Approximate
Sat 04:07:00 PM -24.9370 163.0476 225° Southwest  Level FlightAware Approximate
Sat 04:07:00 PM -24.9818 162.9959 224° Southwest 36,000  Level Aus ATC (Calculated)
Sat 04:08:00 PM -24.9304 163.1058 63° Northeast  Level FlightAware Approximate
Sat 04:09:00 PM -24.9818 162.9959 243° Southwest  Level FlightAware Approximate
Sat 04:09:00 PM -25.1893 162.7631 224° Southwest 36,000  Level Aus ATC (Calculated)
Sat 04:10:00 PM -25.1110 162.8518 46° Northeast  Level FlightAware Approximate
Sat 04:11:00 PM -25.0327 162.9403 46° Northeast  Level FlightAware Approximate
Sat 04:12:00 PM -25.0402 162.9324 225° Southwest  Level FlightAware Approximate
Sat 04:12:00 PM -25.4804 162.4344 224° Southwest 36,000  Level Aus ATC (Calculated)
Sat 04:13:00 PM -25.5588 162.3455 226° Southwest  Level FlightAware Approximate
Sat 04:14:00 PM -25.6371 162.2565 226° Southwest  Level FlightAware Approximate
Sat 04:15:00 PM -25.7153 162.1674 226° Southwest  Level FlightAware Approximate
Sat 04:16:00 PM -25.7935 162.0782 226° Southwest  Level FlightAware Approximate
Sat 04:16:10 PM -25.8750 161.9850 224° Southwest 36,000  Level Aus ATC (Calculated)
Sat 04:16:54 PM -25.9496 161.8995 224° Southwest 36,000 39 Level Aus ATC (Calculated)
Sat 04:18:00 PM -26.0342 161.8024 226° Southwest  Level FlightAware Approximate
Sat 04:19:00 PM -26.1110 161.7140 226° Southwest  Level FlightAware Approximate
Sat 04:20:00 PM -26.1877 161.6255 226° Southwest  Level FlightAware Approximate
Sat 04:21:00 PM -26.2645 161.5369 226° Southwest  Level FlightAware Approximate
Sat 04:22:00 PM -26.3411 161.4482 226° Southwest  Level FlightAware Approximate
Sat 04:22:26 PM -26.4583 161.3122 223° Southwest 36,000  Level Aus ATC (Calculated)
Sat 04:24:00 PM -26.5787 161.1720 226° Southwest  Level FlightAware Approximate
Sat 04:25:00 PM -26.6555 161.0823 226° Southwest  Level FlightAware Approximate
Sat 04:26:00 PM -26.7323 160.9925 226° Southwest  Level FlightAware Approximate
Sat 04:26:30 PM -26.8540 160.8498 223° Southwest 36,000  Level Aus ATC (Calculated)
Sat 04:28:00 PM -26.9688 160.7146 226° Southwest  Level FlightAware Approximate
Sat 04:29:00 PM -27.0453 160.6244 226° Southwest  Level FlightAware Approximate
Sat 04:30:00 PM -27.1218 160.5340 226° Southwest  Level FlightAware Approximate
Sat 04:31:00 PM -27.1982 160.4434 226° Southwest  Level FlightAware Approximate
Sat 04:31:40 PM -27.3376 160.2778 223° Southwest 36,000  Level Aus ATC (Calculated)
Sat 04:33:00 PM -27.4392 160.1566 227° Southwest  Level FlightAware Approximate
Sat 04:33:40 PM -27.5101 160.0718 222° Southwest 36,000  Level Aus ATC (Calculated)
Sat 04:34:00 PM -27.5154 160.0655 227° Southwest  Level FlightAware Approximate
Sat 04:35:00 PM -27.6116 159.9502 227° Southwest  Level FlightAware Approximate
Sat 04:35:40 PM -27.6967 159.8479 222° Southwest 36,000  Level Aus ATC (Calculated)
Sat 04:37:00 PM -27.7980 159.7260 227° Southwest  Level FlightAware Approximate
Sat 04:38:00 PM -27.8738 159.6343 227° Southwest  Level FlightAware Approximate
Sat 04:39:00 PM -27.9497 159.5425 227° Southwest  Level FlightAware Approximate
Sat 04:39:11 PM -28.0456 159.4262 221° Southwest 36,000  Level Aus ATC (Calculated)
Sat 04:39:58 PM -28.1499 159.2991 220° Southwest 36,000 76 Level Aus ATC (Calculated)
Sat 04:41:00 PM -28.2334 159.1972 227° Southwest  Level FlightAware Approximate
Sat 04:42:00 PM -28.3141 159.0985 227° Southwest  Level FlightAware Approximate
Sat 04:43:00 PM -28.2334 159.1972 47° Northeast  Level FlightAware Approximate
Sat 04:44:00 PM -28.3141 159.0985 227° Southwest  Level FlightAware Approximate
Sat 04:44:52 PM -28.5804 158.7708 217° Southwest 38,000  Level Aus ATC (Calculated)
Sat 04:45:00 PM -28.2334 159.1972 47° Northeast  Level FlightAware Approximate
Sat 04:46:00 PM -28.4892 158.8833 47° Northeast  Level FlightAware Approximate
Sat 04:47:00 PM -28.4087 158.9824 47° Northeast  Level FlightAware Approximate
Sat 04:48:00 PM -28.3281 159.0813 47° Northeast  Level FlightAware Approximate
Sat 04:49:00 PM -28.2474 159.1801 47° Northeast  Level FlightAware Approximate
Sat 04:49:52 PM -29.0268 158.2153 201° Southwest 38,000  Level Aus ATC (Calculated)
Sat 04:50:00 PM -28.3281 159.0813 227° Southwest  Level FlightAware Approximate
Sat 04:51:00 PM -28.9361 158.3287 48° Northeast  Level FlightAware Approximate
Sat 04:52:00 PM -28.8560 158.4287 48° Northeast  Level FlightAware Approximate
Sat 04:53:00 PM -28.7758 158.5285 48° Northeast  Level FlightAware Approximate
Sat 04:54:00 PM -28.6956 158.6281 47° Northeast  Level FlightAware Approximate
Sat 04:54:51 PM -29.4709 157.6550 84° East 38,000  Level Aus ATC (Calculated)
Sat 04:56:00 PM -29.3794 157.7711 48° Northeast  Level FlightAware Approximate
Sat 04:57:00 PM -29.2997 157.8720 48° Northeast  Level FlightAware Approximate
Sat 04:58:00 PM -29.3773 157.7690 227° Southwest  Level Estimated
Sat 04:59:00 PM -29.4571 157.6682 228° Southwest  Level FlightAware Approximate
Sat 04:59:51 PM -29.8726 157.1415 61° Northeast 38,000  Level Aus ATC (Calculated)
Sat 05:00:00 PM -29.5367 157.5672 228° Southwest  Level FlightAware Approximate
Sat 05:01:00 PM -29.9636 157.0242 228° Southwest  Level FlightAware Approximate
Sat 05:02:00 PM -30.0427 156.9220 228° Southwest  Level FlightAware Approximate
Sat 05:03:00 PM -30.1216 156.8197 228° Southwest  Level FlightAware Approximate
Sat 05:04:00 PM -30.2005 156.7172 228° Southwest  Level FlightAware Approximate
Sat 05:04:20 PM -29.4368 158.0333 228° Southwest 446 513 37,900  Level Aus ATC (RADAR)
Sat 05:04:50 PM -29.4811 157.9855 223° Southwest 437 503 37,900  Level Aus ATC (RADAR)
Sat 05:05:20 PM -29.5265 157.9368 223° Southwest 440 506 37,900  Level Aus ATC (RADAR)
Sat 05:05:55 PM -29.5786 157.8799 223° Southwest 442 509 37,900  Level Aus ATC (RADAR)
Sat 05:07:10 PM -29.6861 157.7598 224° Southwest 434 499 37,900  Level Aus ATC (RADAR)
Sat 05:07:45 PM -29.7385 157.7027 223° Southwest 437 503 37,900  Level Aus ATC (RADAR)
Sat 05:08:14 PM -29.7864 157.6528 222° Southwest 446 513 37,900  Level Aus ATC (RADAR)
Sat 05:08:54 PM -29.8451 157.5886 223° Southwest 442 509 37,900  Level Aus ATC (RADAR)
Sat 05:09:29 PM -29.8947 157.5333 224° Southwest 436 502 37,900  Level Aus ATC (RADAR)
Sat 05:09:59 PM -29.9365 157.4866 224° Southwest 430 495 37,900  Level Aus ATC (RADAR)
Sat 05:10:34 PM -29.9847 157.4319 225° Southwest 425 489 37,900  Level Aus ATC (RADAR)
Sat 05:11:09 PM -30.0339 157.3767 224° Southwest 423 487 37,900  Level Aus ATC (RADAR)
Sat 05:12:24 PM -30.1375 157.2591 224° Southwest 419 482 37,900  Level Aus ATC (RADAR)
Sat 05:12:49 PM -30.1728 157.2196 224° Southwest 420 483 37,900  Level Aus ATC (RADAR)
Sat 05:13:24 PM -30.2234 157.1631 224° Southwest 426 490 37,900 86 Level Aus ATC (RADAR)
Sat 05:13:59 PM -30.2729 157.1078 224° Southwest 425 489 38,000 86 Climbing Aus ATC (RADAR)
Sat 05:14:34 PM -30.3226 157.0519 224° Southwest 425 489 38,000  Level Aus ATC (RADAR)
Sat 05:15:09 PM -30.3722 156.9959 224° Southwest 427 491 38,000 -63 Level Aus ATC (RADAR)
Sat 05:16:09 PM -30.4566 156.9011 224° Southwest 423 487 37,900 -44 Descending Aus ATC (RADAR)
Sat 05:17:24 PM -30.5610 156.7825 224° Southwest 419 482 37,900  Level Aus ATC (RADAR)
Sat 05:17:49 PM -30.5959 156.7431 224° Southwest 419 482 37,900  Level Aus ATC (RADAR)
Sat 05:18:19 PM -30.6380 156.6960 224° Southwest 420 483 37,900  Level Aus ATC (RADAR)
Sat 05:19:09 PM -30.7083 156.6163 224° Southwest 423 487 37,900  Level Aus ATC (RADAR)
Sat 05:19:39 PM -30.7504 156.5682 225° Southwest 424 488 37,900 94 Level Aus ATC (RADAR)
Sat 05:20:13 PM -30.7996 156.5121 224° Southwest 425 489 38,000 87 Climbing Aus ATC (RADAR)
Sat 05:20:48 PM -30.8490 156.4559 224° Southwest 426 490 38,000  Level Aus ATC (RADAR)
Sat 05:21:18 PM -30.8913 156.4076 224° Southwest 426 490 38,000  Level Aus ATC (RADAR)
Sat 05:22:13 PM -30.9687 156.3188 225° Southwest 427 491 38,000 -75 Level Aus ATC (RADAR)
Sat 05:22:38 PM -31.0038 156.2784 225° Southwest 426 490 37,900  Descending Aus ATC (RADAR)
Sat 05:23:13 PM -31.0533 156.2221 224° Southwest 426 490 38,000 80 Climbing Aus ATC (RADAR)
Sat 05:23:53 PM -31.1095 156.1577 224° Southwest 426 490 38,000  Level Aus ATC (RADAR)
Sat 05:24:28 PM -31.1587 156.1008 225° Southwest 426 490 38,000  Level Aus ATC (RADAR)
Sat 05:24:58 PM -31.2008 156.0517 225° Southwest 427 491 38,000  Level Aus ATC (RADAR)
Sat 05:25:48 PM -31.2717 155.9704 224° Southwest 429 494 38,000  Level Aus ATC (RADAR)
Sat 05:26:23 PM -31.3210 155.9133 225° Southwest 428 493 38,000  Level Aus ATC (RADAR)
Sat 05:27:08 PM -31.3844 155.8400 225° Southwest 428 493 38,000  Level Aus ATC (RADAR)
Sat 05:27:43 PM -31.4334 155.7829 225° Southwest 428 493 38,000  Level Aus ATC (RADAR)
Sat 05:28:17 PM -31.4825 155.7257 225° Southwest 428 493 38,000  Level Aus ATC (RADAR)
Sat 05:28:57 PM -31.5386 155.6606 225° Southwest 427 491 38,000  Level Aus ATC (RADAR)
Sat 05:29:27 PM -31.5806 155.6115 225° Southwest 427 491 38,000  Level Aus ATC (RADAR)
Sat 05:30:02 PM -31.6297 155.5544 225° Southwest 427 491 38,000  Level Aus ATC (RADAR)
Sat 05:30:47 PM -31.6930 155.4799 225° Southwest 430 495 38,000  Level Aus ATC (RADAR)
Sat 05:30:48 PM -31.6973 155.4746 225° Southwest 432 497 38,000  Level FlightAware ADS-B (YPLB)
Sat 05:31:19 PM -31.7305 155.4357 225° Southwest 434 499 38,000  Level FlightAware ADS-B (YPLB)
Sat 05:31:50 PM -31.7771 155.3813 225° Southwest 435 501 38,000  Level FlightAware ADS-B (YPLB)
Sat 05:32:52 PM -31.8708 155.2715 225° Southwest 436 502 38,000  Level Aus ATC (RADAR)
Sat 05:33:20 PM -31.9104 155.2244 225° Southwest 437 503 38,000  Level FlightAware ADS-B (YPLB)
Sat 05:33:50 PM -31.9562 155.1705 225° Southwest 438 504 38,000  Level FlightAware ADS-B (YPLB)
Sat 05:34:21 PM -32.0000 155.1185 225° Southwest 439 505 38,000  Level FlightAware ADS-B (YPLB)
Sat 05:35:12 PM -32.0705 155.0350 225° Southwest 439 505 38,000  Level Aus ATC (RADAR)
Sat 05:35:21 PM -32.0838 155.0191 225° Southwest 441 507 38,000  Level FlightAware ADS-B (YPLB)
Sat 05:35:51 PM -32.1283 154.9664 225° Southwest 443 510 38,000  Level FlightAware ADS-B (YPLB)
Sat 05:36:22 PM -32.1751 154.9109 225° Southwest 445 512 38,000  Level FlightAware ADS-B (YPLB)
Sat 05:37:32 PM -32.2692 154.7983 225° Southwest 448 516 38,000  Level FlightAware ADS-B (YPLB)
Sat 05:38:04 PM -32.3242 154.7326 225° Southwest 449 517 38,000  Level FlightAware ADS-B (YPLB)
Sat 05:39:03 PM -32.4104 154.6297 225° Southwest 450 518 38,000  Level FlightAware ADS-B (YPLB)
Sat 05:39:34 PM -32.4543 154.5770 225° Southwest 451 519 38,000  Level FlightAware ADS-B (YPLB)
Sat 05:40:04 PM -32.4982 154.5241 225° Southwest 452 520 38,000  Level FlightAware ADS-B (YPLB)
Sat 05:40:53 PM -32.5710 154.4366 225° Southwest 454 522 38,000  Level FlightAware ADS-B (YPLB)
Sat 05:41:23 PM -32.6142 154.3846 225° Southwest 454 522 38,000  Level FlightAware ADS-B (YPLB)
Sat 05:42:04 PM -32.6759 154.3098 226° Southwest 456 525 38,000  Level FlightAware ADS-B (YPLB)
Sat 05:42:43 PM -32.7338 154.2397 226° Southwest 456 525 38,000  Level FlightAware ADS-B (YPLB)
Sat 05:43:13 PM -32.7765 154.1878 226° Southwest 457 526 38,000  Level FlightAware ADS-B (YPLB)
Sat 05:43:43 PM -32.8209 154.1338 226° Southwest 459 528 38,000  Level FlightAware ADS-B (YPLB)
Sat 05:44:14 PM -32.8689 154.0755 226° Southwest 459 528 38,000  Level FlightAware ADS-B (YPLB)
Sat 05:44:44 PM -32.9113 154.0240 226° Southwest 460 529 38,000 97 Level FlightAware ADS-B (YPLB)
Sat 05:45:16 PM -32.9561 153.9699 226° Southwest 460 529 38,100  Climbing Aus ATC (RADAR)
Sat 05:45:23 PM -32.9714 153.9505 226° Southwest 461 531 38,000 -158 Descending FlightAware ADS-B (YPLB)
Sat 05:45:54 PM -33.0175 153.8938 226° Southwest 460 529 38,000  Level FlightAware ADS-B (YPLB)
Sat 05:46:25 PM -33.0620 153.8392 226° Southwest 461 531 38,000  Level FlightAware ADS-B (YPLB)
Sat 05:47:03 PM -33.1180 153.7706 226° Southwest 460 529 38,000  Level FlightAware ADS-B (YPLB)
Sat 05:47:33 PM -33.1635 153.7147 226° Southwest 460 529 38,000  Level FlightAware ADS-B (YPLB)
Sat 05:48:04 PM -33.2087 153.6592 226° Southwest 460 529 38,000  Level FlightAware ADS-B (YPLB)
Sat 05:48:34 PM -33.2529 153.6047 226° Southwest 461 531 38,000  Level FlightAware ADS-B (YPLB)
Sat 05:49:04 PM -33.2884 153.5565 229° Southwest 458 527 38,000  Level FlightAware ADS-B (YPLB)
Sat 05:49:34 PM -33.3275 153.4835 237° Southwest 457 526 38,000  Level FlightAware ADS-B (YPLB)
Sat 05:50:04 PM -33.3615 153.4170 239° Southwest 458 527 38,000  Level FlightAware ADS-B (YPLB)
Sat 05:50:34 PM -33.3942 153.3524 239° Southwest 458 527 38,000  Level FlightAware ADS-B (YPLB)
Sat 05:51:14 PM -33.4381 153.2656 239° Southwest 458 527 38,000  Level FlightAware ADS-B (YPLB)
Sat 05:51:53 PM -33.4814 153.1801 239° Southwest 457 526 38,000  Level FlightAware ADS-B (YPLB)
Sat 05:52:25 PM -33.5154 153.1126 239° Southwest 456 525 38,000  Level FlightAware ADS-B (YPLB)
Sat 05:53:04 PM -33.5574 153.0290 239° Southwest 455 524 38,000 -87 Level FlightAware ADS-B (YPLB)
Sat 05:53:34 PM -33.5898 152.9642 239° Southwest 454 522 37,900 -1,391 Descending FlightAware ADS-B (YPLB)
Sat 05:54:13 PM -33.6331 152.8778 239° Southwest 449 517 36,400 -2,914 Descending FlightAware ADS-B (YPLB)
Sat 05:54:44 PM -33.6650 152.8134 239° Southwest 463 533 34,500 -3,943 Descending FlightAware ADS-B (YPLB)
Sat 05:55:23 PM -33.7108 152.7225 239° Southwest 489 563 31,800 -3,304 Descending FlightAware ADS-B (YPLB)
Sat 05:55:53 PM -33.7454 152.6538 239° Southwest 476 548 30,700 -2,800 Descending FlightAware ADS-B (YPLB)
Sat 05:56:23 PM -33.7802 152.5841 239° Southwest 485 558 29,000 -3,240 Descending FlightAware ADS-B (YPLB)
Sat 05:56:43 PM -33.8015 152.5411 239° Southwest 486 559 28,000 -2,857 Descending FlightAware ADS-B (YPLB)
Sat 05:57:26 PM -33.8483 152.4461 239° Southwest 475 547 26,000 -3,900 Descending FlightAware ADS-B
Sat 05:57:43 PM -33.8671 152.4079 239° Southwest 470 541 24,100 -2,743 Descending FlightAware ADS-B
Sat 05:58:01 PM -33.8874 152.3667 239° Southwest 465 535 24,400 -774 Climbing Aus ATC (RADAR)
Sat 05:58:14 PM -33.8671 152.4079 239° Southwest 463 533 23,700 -3,000 Descending FlightAware ADS-B
Sat 05:58:45 PM -33.9381 152.2637 239° Southwest 454 522 22,200 -2,806 Descending FlightAware ADS-B (YPLB)
Sat 05:59:16 PM -33.9707 152.1974 239° Southwest 446 513 20,800 -2,640 Descending FlightAware ADS-B (YPLB)
Sat 05:59:35 PM -33.9906 152.1567 239° Southwest 442 509 20,000 -2,327 Descending FlightAware ADS-B (YPLB)
Sat 06:00:05 PM -34.0193 152.1006 239° Southwest 443 510 18,900 -2,700 Descending Aus ATC (RADAR)
Sat 06:00:15 PM -34.0268 152.0700 239° Southwest 435 501 18,200 -3,097 Descending FlightAware ADS-B (YPLB)
Sat 06:00:36 PM -34.0301 152.0241 265° West 434 499 17,300 -2,588 Descending FlightAware ADS-B (YPLB)
Sat 06:01:06 PM -34.0229 151.9507 277° West 432 497 16,000 -2,492 Descending FlightAware ADS-B (YPLB)
Sat 06:01:41 PM -34.0148 151.8715 277° West 419 482 14,600 -2,700 Descending Aus ATC (RADAR)
Sat 06:01:46 PM -34.0132 151.8543 277° West 423 487 14,200 -2,743 Descending FlightAware ADS-B (YPLB)
Sat 06:02:16 PM -34.0063 151.7908 277° West 409 471 13,000 -2,462 Descending Aus ATC (RADAR)
Sat 06:02:25 PM -34.0041 151.7665 277° West 405 466 12,600 -2,550 Descending FlightAware ADS-B (YPLB)
Sat 06:02:56 PM -33.9972 151.6978 277° West 396 456 11,300 -2,557 Descending FlightAware ADS-B (YPLB)
Sat 06:03:26 PM -33.9906 151.6320 277° West 389 448 10,000 -2,588 Descending FlightAware ADS-B (YPLB)
Sat 06:03:47 PM -33.9859 151.5876 277° West 384 442 9,100 -1,950 Descending FlightAware ADS-B (YPLB)
Sat 06:04:06 PM -33.9818 151.5479 277° West 370 426 8,700 -923 Descending FlightAware ADS-B (YPLB)
Sat 06:04:26 PM -33.9776 151.5080 277° West 356 410 8,500 -789 Descending FlightAware ADS-B (YPLB)
Sat 06:04:44 PM -33.9745 151.4787 277° West 346 398 8,200 -947 Descending FlightAware ADS-B
Sat 06:05:04 PM -33.9706 151.4408 277° West 347 399 7,900 -1,000 Descending FlightAware ADS-B
Sat 06:05:20 PM -33.9674 151.4097 277° West 345 397 7,600 -882 Descending FlightAware ADS-B
Sat 06:05:38 PM -33.9633 151.3714 277° West 327 376 7,400 -667 Descending FlightAware ADS-B (YPLB)
Sat 06:05:56 PM -33.9603 151.3432 277° West 314 361 7,200 -789 Descending FlightAware ADS-B
Sat 06:06:16 PM -33.9560 151.3102 279° West 301 346 6,900 -800 Descending FlightAware ADS-B
Sat 06:06:26 PM -33.9504 151.2956 295° West 299 344 6,800 -600 Descending FlightAware ADS-B
Sat 06:06:36 PM -33.9411 151.2831 312° West 297 342 6,700 -600 Descending FlightAware ADS-B
Sat 06:06:46 PM -33.9277 151.2738 330° Northwest 297 342 6,600 -571 Descending FlightAware ADS-B
Sat 06:06:57 PM -33.9104 151.2692 347° North 295 339 6,500 -387 Descending FlightAware ADS-B (YPLB)
Sat 06:07:17 PM -33.8886 151.2653 351° North 294 338 6,400 -769 Descending FlightAware ADS-B
Sat 06:07:36 PM -33.8611 151.2604 352° North 291 335 6,000 -923 Descending FlightAware ADS-B
Sat 06:07:56 PM -33.8343 151.2555 351° North 288 331 5,800 -750 Descending FlightAware ADS-B
Sat 06:08:16 PM -33.8054 151.2500 351° North 289 333 5,500 -968 Descending FlightAware ADS-B (YPLB)
Sat 06:08:27 PM -33.7906 151.2472 351° North 289 333 5,300 -818 Descending FlightAware ADS-B (YPLB)
Sat 06:08:38 PM -33.7777 151.2447 351° North 290 334 5,200 -857 Descending FlightAware ADS-B (YPLB)
Sat 06:08:48 PM -33.7626 151.2418 351° North 289 333 5,000 -947 Descending FlightAware ADS-B (YPLB)
Sat 06:08:57 PM -33.7508 151.2395 351° North 284 327 4,900 -300 Descending FlightAware ADS-B (YPLB)
Sat 06:09:08 PM -33.7380 151.2370 351° North 274 315 4,900  Level FlightAware ADS-B (YPLB)
Sat 06:09:20 PM -33.7246 151.2339 349° North 264 304 4,900 -273 Level FlightAware ADS-B
Sat 06:09:30 PM -33.7140 151.2282 336° Northwest 259 298 4,800 -571 Descending FlightAware ADS-B
Sat 06:09:41 PM -33.7059 151.2197 319° Northwest 254 292 4,700 -706 Descending FlightAware ADS-B
Sat 06:09:47 PM -33.7004 151.2092 302° West 250 288 4,600 -923 Descending FlightAware ADS-B (YPLB)
Sat 06:09:54 PM -33.6985 151.2023 288° West 242 278 4,500 -316 Descending FlightAware ADS-B
Sat 06:10:06 PM -33.6984 151.1859 271° West 235 270 4,500 -353 Level FlightAware ADS-B
Sat 06:10:11 PM -33.7001 151.1797 252° West 230 265 4,400 -545 Descending FlightAware ADS-B
Sat 06:10:17 PM -33.7018 151.1755 243° Southwest 222 255 4,400  Level FlightAware ADS-B
Sat 06:10:27 PM -33.7095 151.1657 226° Southwest 214 246 4,400 -300 Level FlightAware ADS-B
Sat 06:10:37 PM -33.7183 151.1609 204° Southwest 205 236 4,300 -800 Descending FlightAware ADS-B
Sat 06:10:57 PM -33.7352 151.1547 197° South 206 237 4,000 -1,050 Descending FlightAware ADS-B
Sat 06:11:17 PM -33.7565 151.1470 197° South 196 226 3,600 -1,091 Descending FlightAware ADS-B (YPLB)
Sat 06:11:30 PM -33.7662 151.1448 191° South 191 220 3,400 -522 Descending FlightAware ADS-B
Sat 06:11:40 PM -33.7748 151.1449 179° South 187 215 3,400 -600 Level FlightAware ADS-B
Sat 06:12:00 PM -33.7924 151.1472 174° South 192 221 3,100 -900 Descending FlightAware ADS-B
Sat 06:12:20 PM -33.8081 151.1512 168° South 188 216 2,800 -1,154 Descending FlightAware ADS-B
Sat 06:12:26 PM -33.8132 151.1527 166° South 183 211 2,600 -1,059 Descending FlightAware ADS-B (KFRR)
Sat 06:12:37 PM -33.8249 151.1560 167° South 173 199 2,500 -774 Descending FlightAware ADS-B (YPLB)
Sat 06:12:57 PM -33.8395 151.1597 168° South 156 180 2,200 -923 Descending FlightAware ADS-B (YPLB)
Sat 06:13:16 PM -33.8510 151.1627 168° South 149 171 1,900 -769 Descending FlightAware ADS-B
Sat 06:13:36 PM -33.8647 151.1663 168° South 146 168 1,700 -750 Descending FlightAware ADS-B
Sat 06:13:56 PM -33.8730 151.1684 168° South 136 157 1,400 -750 Descending FlightAware ADS-B
Sat 06:14:08 PM -33.8864 151.1719 168° South 126 145 1,300 -600 Descending FlightAware ADS-B (YPLB)
Sat 06:14:26 PM -33.8952 151.1742 168° South 117 135 1,100 -706 Descending FlightAware ADS-B (YPLB)
Sat 06:14:42 PM -33.9029 151.1762 168° South 122 140 900 -706 Descending FlightAware ADS-B
Sat 06:15:00 PM -33.9115 151.1785 168° South 121 139 700 -600 Descending FlightAware ADS-B
Sat 06:15:22 PM -33.9253 151.1819 168° South 121 139 500 -556 Descending FlightAware ADS-B
Sat 06:15:54 PM -33.9420 151.1860 169° South 115 132 200 -218 Descending FlightAware ADS-B
Sat 06:16:14 PM -33.9530 151.1890 167° South 118 136 -77 Descending FlightAware ADS-B
Sat 06:16:35 PM -33.9620 151.1920 165° South 78 90 103 Level FlightAware ADS-B
Sat 06:17:12 PM -33.9696 151.1918 165° South 37 43 100 162 Climbing Aus ATC (RADAR)

Login

Don't have an account? Register now (free) for customized features, flight alerts, and more!